Time;durP1;ratioP1;P1;durP2;ratioP2;P2;SDS_P1;SDS_P2;PMS_P1;PMS_P2;Temp;Humidity;BMP_temperature;BMP_pressure;BME280_temperature;BME280_humidity;BME280_pressure;Samples;Min_cycle;Max_cycle;Signal;HPM_P1;HPM_P2
2021/04/11 00:00:41;;;;;;;4.13;3.80;;;14.20;69.40;;;;;;1495859;39;20051;-61
2021/04/11 00:02:02;;;;;;;4.57;3.60;;;14.20;69.40;;;;;;1499386;39;20026;-60
2021/04/11 00:03:26;;;;;;;4.20;3.70;;;14.20;69.40;;;;;;1494960;39;20032;-60
2021/04/11 00:04:47;;;;;;;6.22;3.67;;;14.20;69.50;;;;;;1499059;39;20043;-62
2021/04/11 00:06:08;;;;;;;5.68;3.83;;;14.20;69.50;;;;;;1496563;39;20038;-61
2021/04/11 00:07:29;;;;;;;4.50;3.90;;;14.20;69.50;;;;;;1498081;39;20031;-60
2021/04/11 00:08:50;;;;;;;4.55;3.58;;;14.20;69.50;;;;;;1494375;39;20034;-61
2021/04/11 00:10:17;;;;;;;4.00;3.63;;;14.20;69.50;;;;;;1497834;39;20313;-60
2021/04/11 00:11:38;;;;;;;3.85;3.55;;;14.20;69.70;;;;;;1497280;39;20058;-61
2021/04/11 00:13:00;;;;;;;3.95;3.50;;;14.20;69.40;;;;;;1497121;39;20079;-61
2021/04/11 00:14:21;;;;;;;3.50;3.20;;;14.30;69.50;;;;;;1493314;39;20020;-60
2021/04/11 00:15:42;;;;;;;4.57;3.13;;;14.20;69.40;;;;;;1494483;39;20070;-60
2021/04/11 00:17:03;;;;;;;3.78;3.40;;;14.20;69.40;;;;;;1496639;39;20031;-58
2021/04/11 00:18:24;;;;;;;7.15;3.67;;;14.20;70.10;;;;;;1499623;39;20043;-59
2021/04/11 00:19:45;;;;;;;5.28;4.05;;;14.30;69.40;;;;;;1499015;39;20119;-60
2021/04/11 00:21:06;;;;;;;4.45;4.05;;;14.30;69.60;;;;;;1495021;39;20119;-61
2021/04/11 00:22:27;;;;;;;4.60;3.67;;;14.30;69.40;;;;;;1497384;39;20031;-61
2021/04/11 00:23:48;;;;;;;5.05;3.95;;;14.30;69.40;;;;;;1496648;39;20023;-61
2021/04/11 00:25:16;;;;;;;6.45;4.10;;;14.30;69.40;;;;;;1497839;39;20152;-60
2021/04/11 00:26:37;;;;;;;4.03;3.63;;;14.30;69.50;;;;;;1497004;39;20131;-61
2021/04/11 00:27:58;;;;;;;5.45;4.28;;;14.30;69.40;;;;;;1495381;39;20027;-61
2021/04/11 00:29:19;;;;;;;7.82;3.97;;;14.30;69.50;;;;;;1494516;39;20359;-61
2021/04/11 00:30:41;;;;;;;4.05;3.55;;;14.30;69.50;;;;;;1493435;39;20047;-60
2021/04/11 00:32:04;;;;;;;5.57;4.63;;;14.30;69.50;;;;;;1497206;39;20038;-60
2021/04/11 00:33:29;;;;;;;4.35;3.60;;;14.20;69.40;;;;;;1498440;39;20031;-60
2021/04/11 00:34:50;;;;;;;4.13;3.70;;;14.20;69.40;;;;;;1497836;39;20042;-61
2021/04/11 00:36:13;;;;;;;4.07;3.63;;;14.30;69.40;;;;;;1493713;39;20039;-61
2021/04/11 00:37:34;;;;;;;3.70;3.40;;;14.30;69.50;;;;;;1493492;39;20180;-61
2021/04/11 00:38:55;;;;;;;3.55;3.25;;;14.30;69.40;;;;;;1495295;39;20043;-60
2021/04/11 00:40:21;;;;;;;4.10;3.70;;;14.30;69.40;;;;;;1491803;39;20046;-60
2021/04/11 00:41:46;;;;;;;4.65;3.88;;;14.30;69.50;;;;;;1496468;39;20069;-61
2021/04/11 00:43:11;;;;;;;3.90;3.38;;;14.30;69.50;;;;;;1496245;39;20422;-59
2021/04/11 00:44:33;;;;;;;3.78;3.47;;;14.30;69.50;;;;;;1494175;39;20325;-60
2021/04/11 00:45:54;;;;;;;6.85;3.90;;;14.30;69.50;;;;;;1496456;39;20031;-60
2021/04/11 00:47:16;;;;;;;4.70;4.00;;;14.30;69.40;;;;;;1498946;39;20051;-60
2021/04/11 00:48:38;;;;;;;3.85;3.40;;;14.30;69.60;;;;;;1496399;39;20081;-59
2021/04/11 00:50:06;;;;;;;3.38;2.90;;;14.30;69.60;;;;;;1497277;39;20035;-61
2021/04/11 00:51:30;;;;;;;5.32;3.40;;;14.30;69.60;;;;;;1497043;39;20026;-59
2021/04/11 00:52:52;;;;;;;3.38;3.10;;;14.30;69.40;;;;;;1495891;39;20039;-60
2021/04/11 00:54:14;;;;;;;3.13;2.92;;;14.30;69.40;;;;;;1497782;39;20019;-59
2021/04/11 00:55:35;;;;;;;3.80;3.50;;;14.20;69.40;;;;;;1499365;39;20078;-59
2021/04/11 00:56:56;;;;;;;3.78;3.00;;;14.20;70.10;;;;;;1493123;39;20064;-59
2021/04/11 00:58:20;;;;;;;3.17;2.97;;;14.20;69.40;;;;;;1494291;39;20031;-60
2021/04/11 00:59:41;;;;;;;3.83;3.28;;;14.30;69.70;;;;;;1494710;39;20121;-60
2021/04/11 01:01:05;;;;;;;5.28;4.68;;;14.20;69.60;;;;;;1498678;39;20025;-60
2021/04/11 01:02:27;;;;;;;10.77;9.02;;;14.20;69.60;;;;;;1494867;39;20042;-61
2021/04/11 01:03:49;;;;;;;10.40;9.15;;;14.20;68.90;;;;;;1498307;39;20046;-60
2021/04/11 01:05:18;;;;;;;11.88;10.45;;;14.20;68.20;;;;;;1495341;39;20031;-60
2021/04/11 01:07:03;;;;;;;12.38;10.63;;;14.20;67.60;;;;;;1490676;39;20346;-61
2021/04/11 01:08:30;;;;;;;11.68;9.88;;;14.20;67.10;;;;;;1499079;39;20359;-60
2021/04/11 01:09:51;;;;;;;11.85;10.15;;;14.10;66.50;;;;;;1498644;39;20261;-59
2021/04/11 01:11:15;;;;;;;12.35;10.77;;;14.10;66.20;;;;;;1498041;39;20103;-60
2021/04/11 01:12:36;;;;;;;10.90;9.27;;;14.00;66.00;;;;;;1498271;39;20039;-60
2021/04/11 01:14:02;;;;;;;10.32;9.25;;;14.00;65.80;;;;;;1496243;39;20019;-61
2021/04/11 01:15:30;;;;;;;10.00;8.98;;;13.90;65.60;;;;;;1496759;39;20301;-60
2021/04/11 01:16:51;;;;;;;10.02;8.07;;;13.80;65.40;;;;;;1497778;39;20119;-59
2021/04/11 01:18:12;;;;;;;9.65;8.10;;;13.80;65.30;;;;;;1498811;39;20035;-60
2021/04/11 01:19:37;;;;;;;8.50;7.60;;;13.70;65.20;;;;;;1496482;39;20378;-59
2021/04/11 01:21:04;;;;;;;9.60;7.95;;;13.60;65.20;;;;;;1495334;39;20027;-58
2021/04/11 01:22:43;;;;;;;7.47;6.75;;;13.60;65.00;;;;;;1498072;39;20050;-59
2021/04/11 01:24:15;;;;;;;7.55;6.78;;;13.50;64.80;;;;;;1492065;39;20033;-60
2021/04/11 01:25:38;;;;;;;7.28;6.57;;;13.40;64.60;;;;;;1497730;39;20036;-59
2021/04/11 01:26:59;;;;;;;7.55;6.75;;;13.40;64.60;;;;;;1495618;39;20031;-59
2021/04/11 01:28:25;;;;;;;7.55;6.85;;;13.30;64.50;;;;;;1498968;39;20289;-60
2021/04/11 01:29:47;;;;;;;8.25;7.38;;;13.20;64.60;;;;;;1497105;39;20034;-60
2021/04/11 01:31:09;;;;;;;8.23;7.43;;;13.20;64.50;;;;;;1496388;39;20059;-60
2021/04/11 01:32:30;;;;;;;9.68;7.20;;;13.10;64.50;;;;;;1496560;39;20029;-60
2021/04/11 01:33:53;;;;;;;8.98;7.07;;;13.00;64.50;;;;;;1498734;39;20022;-60
2021/04/11 01:35:16;;;;;;;7.88;7.03;;;12.90;64.70;;;;;;1493667;39;20024;-60
2021/04/11 01:36:42;;;;;;;7.57;6.85;;;12.90;64.80;;;;;;1496886;39;20027;-60
2021/04/11 01:38:05;;;;;;;8.50;7.65;;;12.80;64.90;;;;;;1497247;39;20062;-60
2021/04/11 01:39:32;;;;;;;8.00;7.10;;;12.70;64.90;;;;;;1497150;39;20386;-60
2021/04/11 01:41:00;;;;;;;8.10;7.13;;;12.70;65.10;;;;;;1492782;39;20038;-60
2021/04/11 01:42:21;;;;;;;8.02;7.22;;;12.60;65.10;;;;;;1497274;39;20007;-60
2021/04/11 01:43:43;;;;;;;8.02;6.93;;;12.60;65.10;;;;;;1494187;39;20123;-60
2021/04/11 01:45:04;;;;;;;7.32;6.63;;;12.60;65.20;;;;;;1498484;39;20023;-59
2021/04/11 01:46:26;;;;;;;6.82;6.18;;;12.50;65.20;;;;;;1498409;39;20035;-60
2021/04/11 01:47:47;;;;;;;6.13;5.47;;;12.50;65.20;;;;;;1498063;39;20443;-60
2021/04/11 01:49:08;;;;;;;5.93;5.32;;;12.40;65.10;;;;;;1495489;39;20027;-60
2021/04/11 01:50:30;;;;;;;5.50;5.00;;;12.40;65.20;;;;;;1497429;39;20031;-61
2021/04/11 01:52:03;;;;;;;6.18;5.60;;;12.40;65.30;;;;;;1495877;39;20041;-59
2021/04/11 01:53:25;;;;;;;5.38;4.88;;;12.30;65.30;;;;;;1497917;39;20023;-59
2021/04/11 01:54:47;;;;;;;5.32;4.82;;;12.30;65.20;;;;;;1497756;39;20039;-60
2021/04/11 01:56:11;;;;;;;4.95;4.55;;;12.30;65.30;;;;;;1498141;39;20023;-59
2021/04/11 01:57:33;;;;;;;4.60;4.20;;;12.30;65.40;;;;;;1496908;39;20062;-59
2021/04/11 01:58:54;;;;;;;4.63;4.22;;;12.20;65.40;;;;;;1495133;39;20019;-59
2021/04/11 02:00:33;;;;;;;5.28;4.80;;;12.20;65.50;;;;;;1496747;39;20440;-60
2021/04/11 02:01:55;;;;;;;4.67;4.27;;;12.20;65.70;;;;;;1497220;39;20030;-59
2021/04/11 02:03:18;;;;;;;5.45;4.95;;;12.20;65.50;;;;;;1499178;39;20308;-59
2021/04/11 02:04:39;;;;;;;5.30;4.80;;;12.10;65.50;;;;;;1497234;39;20034;-60
2021/04/11 02:06:07;;;;;;;5.15;4.65;;;12.10;65.40;;;;;;1496781;39;20575;-60
2021/04/11 02:07:29;;;;;;;5.20;4.70;;;12.00;65.40;;;;;;1496304;39;20055;-59
2021/04/11 02:08:56;;;;;;;5.78;5.18;;;12.00;65.40;;;;;;1495726;39;20367;-61
2021/04/11 02:10:23;;;;;;;5.45;4.93;;;12.00;65.70;;;;;;1499290;39;20356;-60
2021/04/11 02:11:46;;;;;;;5.60;5.10;;;12.00;65.80;;;;;;1496746;39;20043;-60
2021/04/11 02:13:08;;;;;;;5.80;5.20;;;12.00;65.90;;;;;;1497246;39;20019;-61
2021/04/11 02:14:30;;;;;;;5.78;5.28;;;12.00;65.80;;;;;;1493699;39;20051;-60
2021/04/11 02:15:54;;;;;;;5.88;5.28;;;11.90;65.70;;;;;;1496308;39;20352;-60
2021/04/11 02:17:16;;;;;;;5.70;5.20;;;11.90;65.70;;;;;;1498903;39;20027;-60
2021/04/11 02:18:37;;;;;;;5.45;4.95;;;11.90;65.70;;;;;;1496510;39;20061;-60
2021/04/11 02:19:58;;;;;;;5.78;5.18;;;11.90;65.70;;;;;;1496438;39;20035;-61
2021/04/11 02:21:21;;;;;;;5.40;4.78;;;11.90;65.60;;;;;;1493458;39;20032;-60
2021/04/11 02:22:42;;;;;;;5.03;4.63;;;11.80;65.50;;;;;;1495745;39;20458;-61
2021/04/11 02:24:08;;;;;;;4.50;4.15;;;11.80;65.50;;;;;;1497323;39;20023;-60
2021/04/11 02:25:33;;;;;;;4.70;4.28;;;11.80;65.60;;;;;;1498463;39;20046;-60
2021/04/11 02:26:54;;;;;;;4.82;4.35;;;11.80;65.70;;;;;;1495068;39;20084;-60
2021/04/11 02:28:17;;;;;;;4.55;4.15;;;11.70;65.70;;;;;;1497794;39;20725;-61
2021/04/11 02:29:39;;;;;;;3.95;3.65;;;11.70;65.90;;;;;;1496556;39;20240;-58
2021/04/11 02:31:17;;;;;;;4.03;3.72;;;11.70;65.80;;;;;;1491850;39;20051;-61
2021/04/11 02:32:39;;;;;;;4.07;3.70;;;11.60;65.70;;;;;;1497294;39;20026;-58
2021/04/11 02:34:11;;;;;;;3.83;3.53;;;11.60;65.50;;;;;;1495320;39;20042;-61
2021/04/11 02:35:32;;;;;;;3.85;3.55;;;11.60;65.50;;;;;;1495946;39;20030;-60
2021/04/11 02:37:01;;;;;;;3.40;3.20;;;11.60;65.30;;;;;;1495402;39;20054;-61
2021/04/11 02:38:22;;;;;;;3.45;3.15;;;11.50;65.40;;;;;;1498651;39;20418;-60
2021/04/11 02:39:45;;;;;;;3.67;3.38;;;11.50;65.20;;;;;;1498682;39;20047;-60
2021/04/11 02:41:05;;;;;;;3.88;3.58;;;11.50;65.30;;;;;;1495928;39;20039;-59
2021/04/11 02:42:34;;;;;;;3.85;3.55;;;11.50;65.10;;;;;;1493682;39;20043;-61
2021/04/11 02:43:56;;;;;;;4.05;3.55;;;11.40;65.10;;;;;;1496282;39;20134;-58
2021/04/11 02:45:22;;;;;;;3.80;3.50;;;11.30;64.90;;;;;;1498443;39;20029;-59
2021/04/11 02:46:45;;;;;;;4.15;3.85;;;11.40;65.00;;;;;;1497742;39;20045;-60
2021/04/11 02:48:09;;;;;;;3.92;3.63;;;11.30;64.90;;;;;;1496076;39;20347;-60
2021/04/11 02:49:30;;;;;;;4.07;3.67;;;11.30;65.00;;;;;;1493731;39;20039;-60
2021/04/11 02:50:50;;;;;;;4.25;3.85;;;11.20;64.90;;;;;;1494950;39;20359;-60
2021/04/11 02:52:25;;;;;;;3.92;3.63;;;11.20;64.90;;;;;;1497349;39;20596;-60
2021/04/11 02:53:46;;;;;;;3.70;3.40;;;11.20;65.20;;;;;;1496596;39;20196;-60
2021/04/11 02:55:11;;;;;;;3.42;3.13;;;11.10;65.00;;;;;;1497692;39;20042;-59
2021/04/11 02:56:32;;;;;;;3.88;3.55;;;11.10;65.20;;;;;;1487598;39;20469;-60
2021/04/11 02:57:57;;;;;;;3.38;3.08;;;11.10;65.10;;;;;;1493112;39;20123;-60
2021/04/11 02:59:18;;;;;;;2.72;2.53;;;11.00;65.30;;;;;;1494694;39;20028;-61
2021/04/11 03:00:46;;;;;;;3.10;2.90;;;11.00;65.30;;;;;;1496233;39;20043;-60
2021/04/11 03:02:07;;;;;;;2.88;2.67;;;11.00;65.50;;;;;;1497204;39;20027;-60
2021/04/11 03:03:29;;;;;;;3.45;3.15;;;11.00;65.50;;;;;;1496593;39;20080;-59
2021/04/11 03:04:52;;;;;;;3.60;3.30;;;10.90;65.50;;;;;;1495327;39;20041;-59
2021/04/11 03:06:19;;;;;;;2.70;2.50;;;10.90;65.70;;;;;;1496765;39;20019;-59
2021/04/11 03:07:46;;;;;;;3.28;3.05;;;10.90;65.70;;;;;;1496185;39;20060;-59
2021/04/11 03:09:19;;;;;;;2.90;2.70;;;10.90;65.60;;;;;;1497493;39;20035;-59
2021/04/11 03:10:52;;;;;;;3.13;2.92;;;10.90;65.60;;;;;;1496002;39;20408;-59
2021/04/11 03:12:13;;;;;;;3.38;3.08;;;10.80;65.40;;;;;;1497486;39;20031;-59
2021/04/11 03:13:36;;;;;;;3.45;3.15;;;10.80;65.30;;;;;;1498268;39;20027;-60
2021/04/11 03:14:58;;;;;;;3.20;3.00;;;10.80;65.10;;;;;;1499009;39;20023;-59
2021/04/11 03:16:20;;;;;;;3.50;3.30;;;10.80;65.00;;;;;;1496486;39;20076;-59
2021/04/11 03:17:44;;;;;;;3.10;2.90;;;10.70;64.90;;;;;;1496856;39;20266;-59
2021/04/11 03:19:05;;;;;;;3.15;2.95;;;10.70;64.90;;;;;;1493596;39;20431;-59
2021/04/11 03:20:38;;;;;;;2.90;2.70;;;10.70;64.90;;;;;;1497376;39;20043;-58
2021/04/11 03:21:59;;;;;;;2.70;2.50;;;10.60;65.20;;;;;;1496849;39;20360;-59
2021/04/11 03:23:20;;;;;;;2.50;2.40;;;10.60;65.10;;;;;;1494250;39;20341;-61
2021/04/11 03:24:42;;;;;;;4.35;3.95;;;10.60;65.20;;;;;;1495237;39;20024;-61
2021/04/11 03:26:19;;;;;;;3.58;3.28;;;10.60;65.20;;;;;;1493577;39;20024;-61
2021/04/11 03:27:43;;;;;;;3.22;2.95;;;10.50;65.10;;;;;;1494433;39;20077;-60
2021/04/11 03:29:11;;;;;;;2.72;2.53;;;10.50;64.90;;;;;;1494310;39;20030;-60
2021/04/11 03:30:51;;;;;;;2.78;2.58;;;10.50;65.00;;;;;;1495958;39;20039;-60
2021/04/11 03:32:24;;;;;;;2.70;2.55;;;10.50;65.00;;;;;;1498784;39;20062;-60
2021/04/11 03:33:48;;;;;;;2.50;2.40;;;10.40;64.70;;;;;;1494612;39;20327;-60
2021/04/11 03:35:12;;;;;;;2.88;2.67;;;10.40;64.70;;;;;;1497492;39;20031;-60
2021/04/11 03:36:38;;;;;;;2.65;2.45;;;10.40;64.70;;;;;;1495123;39;20488;-60
2021/04/11 03:38:02;;;;;;;2.92;2.72;;;10.30;64.60;;;;;;1495365;39;20042;-60
2021/04/11 03:39:23;;;;;;;2.25;2.15;;;10.30;64.60;;;;;;1494788;39;20026;-60
2021/04/11 03:40:45;;;;;;;2.40;2.30;;;10.30;64.60;;;;;;1495685;39;20175;-61
2021/04/11 03:42:14;;;;;;;2.83;2.63;;;10.20;64.60;;;;;;1497659;39;20023;-60
2021/04/11 03:43:49;;;;;;;2.90;2.70;;;10.20;64.80;;;;;;1495419;39;20065;-60
2021/04/11 03:45:11;;;;;;;2.80;2.47;;;10.20;65.70;;;;;;1497976;39;20026;-61
2021/04/11 03:46:59;;;;;;;3.35;3.05;;;10.20;64.80;;;;;;1497105;39;20091;-60
2021/04/11 03:48:25;;;;;;;2.70;2.50;;;10.20;64.90;;;;;;1492492;39;20036;-61
2021/04/11 03:50:14;;;;;;;3.33;2.55;;;10.10;64.60;;;;;;1495717;39;20050;-60
2021/04/11 03:51:39;;;;;;;2.63;2.42;;;10.10;64.60;;;;;;1495525;39;20096;-60
2021/04/11 03:53:15;;;;;;;2.55;2.40;;;10.10;64.50;;;;;;1496170;39;20062;-61
2021/04/11 03:54:40;;;;;;;2.60;2.50;;;10.10;64.50;;;;;;1498994;39;20087;-61
2021/04/11 03:56:08;;;;;;;2.88;2.67;;;10.00;64.40;;;;;;1495678;39;20035;-60
2021/04/11 03:57:35;;;;;;;2.75;2.55;;;10.00;64.40;;;;;;1499149;39;20083;-61
2021/04/11 03:58:59;;;;;;;2.80;2.60;;;10.00;64.40;;;;;;1497621;39;20154;-60
2021/04/11 04:00:30;;;;;;;2.40;2.30;;;10.00;64.30;;;;;;1495284;39;20359;-59
2021/04/11 04:01:55;;;;;;;2.78;2.65;;;10.00;64.20;;;;;;1494403;39;20072;-59
2021/04/11 04:03:22;;;;;;;2.63;2.42;;;9.90;64.00;;;;;;1497048;39;20022;-60
2021/04/11 04:04:44;;;;;;;2.60;2.40;;;9.90;64.00;;;;;;1496054;39;20039;-60
2021/04/11 04:06:10;;;;;;;2.58;2.47;;;9.90;63.90;;;;;;1497351;39;20082;-59
2021/04/11 04:07:46;;;;;;;2.72;2.53;;;9.90;64.10;;;;;;1493386;39;20048;-60
2021/04/11 04:09:07;;;;;;;3.20;3.00;;;9.90;64.30;;;;;;1498308;39;20035;-61
2021/04/11 04:10:32;;;;;;;2.88;2.72;;;9.90;64.30;;;;;;1498301;39;20081;-59
2021/04/11 04:12:24;;;;;;;3.47;3.28;;;9.80;64.40;;;;;;1496202;39;20119;-59
2021/04/11 04:14:04;;;;;;;3.45;3.25;;;9.80;64.60;;;;;;1496373;39;20035;-60
2021/04/11 04:15:45;;;;;;;3.05;2.85;;;9.80;64.40;;;;;;1495354;39;20274;-60
2021/04/11 04:17:24;;;;;;;3.47;3.28;;;9.80;64.20;;;;;;1496902;39;20092;-60
2021/04/11 04:18:56;;;;;;;3.78;3.47;;;9.70;64.00;;;;;;1494641;39;20493;-60
2021/04/11 04:20:41;;;;;;;3.65;3.38;;;9.70;64.50;;;;;;1497323;39;20038;-59
2021/04/11 04:22:12;;;;;;;2.85;2.65;;;9.70;63.70;;;;;;1497088;39;20437;-61
2021/04/11 04:23:43;;;;;;;3.78;3.47;;;9.70;63.70;;;;;;1496005;39;20023;-61
2021/04/11 04:25:27;;;;;;;4.30;4.00;;;9.60;63.70;;;;;;1496623;39;20320;-60
2021/04/11 04:27:02;;;;;;;4.00;3.70;;;9.60;63.80;;;;;;1496296;39;20055;-59
2021/04/11 04:28:54;;;;;;;3.80;3.50;;;9.60;64.10;;;;;;1498716;39;20045;-60
2021/04/11 04:30:25;;;;;;;4.75;4.35;;;9.50;64.40;;;;;;1498741;39;20051;-60
2021/04/11 04:32:21;;;;;;;4.45;4.07;;;9.50;64.30;;;;;;1497913;39;20367;-60
2021/04/11 04:34:16;;;;;;;4.72;4.32;;;9.50;64.60;;;;;;1494983;39;20027;-59
2021/04/11 04:36:02;;;;;;;4.57;4.28;;;9.50;64.50;;;;;;1495370;39;20038;-60
2021/04/11 04:37:52;;;;;;;5.45;4.95;;;9.50;64.50;;;;;;1496998;39;20031;-60
2021/04/11 04:39:37;;;;;;;5.15;4.65;;;9.40;64.20;;;;;;1497861;39;20031;-60
2021/04/11 04:41:18;;;;;;;5.05;4.65;;;9.40;64.50;;;;;;1495324;39;20027;-59
2021/04/11 04:42:58;;;;;;;4.50;4.20;;;9.40;64.50;;;;;;1495228;39;20031;-60
2021/04/11 04:44:24;;;;;;;4.60;4.20;;;9.40;64.50;;;;;;1498147;39;20087;-60
2021/04/11 04:45:58;;;;;;;5.03;4.63;;;9.40;64.50;;;;;;1498553;39;20050;-59
2021/04/11 04:47:25;;;;;;;4.80;4.40;;;9.40;64.40;;;;;;1495802;39;20353;-60
2021/04/11 04:49:14;;;;;;;5.28;4.82;;;9.40;64.10;;;;;;1495599;39;20059;-60
2021/04/11 04:51:14;;;;;;;4.70;4.30;;;9.30;64.10;;;;;;1495153;39;20041;-60
2021/04/11 04:52:35;;;;;;;4.88;4.45;;;9.30;63.90;;;;;;1499705;39;20118;-60
2021/04/11 04:54:06;;;;;;;5.15;4.75;;;9.30;63.80;;;;;;1489322;39;20123;-59
2021/04/11 04:55:28;;;;;;;5.78;5.22;;;9.30;63.90;;;;;;1497587;39;20063;-60
2021/04/11 04:57:10;;;;;;;5.35;4.85;;;9.20;63.90;;;;;;1496278;39;20039;-59
2021/04/11 04:58:40;;;;;;;4.95;4.55;;;9.20;64.10;;;;;;1496037;39;20083;-60
2021/04/11 05:00:17;;;;;;;5.53;5.03;;;9.20;64.10;;;;;;1497293;39;20041;-59
2021/04/11 05:01:45;;;;;;;6.05;4.82;;;9.20;64.30;;;;;;1497341;39;20150;-59
2021/04/11 05:03:11;;;;;;;5.82;5.30;;;9.20;64.40;;;;;;1497963;39;20043;-60
2021/04/11 05:04:35;;;;;;;5.57;5.05;;;9.10;64.30;;;;;;1498508;39;20635;-60
2021/04/11 05:06:09;;;;;;;6.72;5.88;;;9.10;64.40;;;;;;1496315;39;20030;-60
2021/04/11 05:07:34;;;;;;;6.07;5.47;;;9.10;64.40;;;;;;1497320;39;20705;-60
2021/04/11 05:09:08;;;;;;;6.88;5.57;;;9.10;64.30;;;;;;1494132;39;20045;-60
2021/04/11 05:10:44;;;;;;;5.97;5.10;;;9.10;64.40;;;;;;1497482;39;20062;-59
2021/04/11 05:12:29;;;;;;;5.95;5.38;;;9.10;64.50;;;;;;1497177;39;20134;-60
2021/04/11 05:13:55;;;;;;;6.32;5.65;;;9.00;64.60;;;;;;1499255;39;20100;-61
2021/04/11 05:15:23;;;;;;;6.25;5.65;;;9.00;64.50;;;;;;1497689;39;20064;-61
2021/04/11 05:16:54;;;;;;;6.88;5.82;;;9.00;64.60;;;;;;1496255;39;20264;-61
2021/04/11 05:18:36;;;;;;;5.82;5.25;;;9.00;64.80;;;;;;1496424;39;20070;-58
2021/04/11 05:20:02;;;;;;;6.30;5.60;;;9.00;64.90;;;;;;1497786;39;20035;-61
2021/04/11 05:21:28;;;;;;;5.82;5.22;;;9.00;64.80;;;;;;1495473;39;20304;-61
2021/04/11 05:22:55;;;;;;;5.75;5.25;;;9.00;64.80;;;;;;1496959;39;20045;-61
2021/04/11 05:24:24;;;;;;;5.85;5.28;;;9.00;64.90;;;;;;1497888;39;20156;-61
2021/04/11 05:26:07;;;;;;;5.38;4.93;;;9.00;64.90;;;;;;1495873;39;20027;-61
2021/04/11 05:27:38;;;;;;;6.20;5.60;;;9.00;65.00;;;;;;1497153;39;20299;-59
2021/04/11 05:29:05;;;;;;;7.93;6.18;;;9.00;65.00;;;;;;1495954;39;20026;-60
2021/04/11 05:30:30;;;;;;;10.18;7.13;;;9.00;65.00;;;;;;1495799;39;20391;-59
2021/04/11 05:31:55;;;;;;;13.05;8.68;;;8.90;65.00;;;;;;1495072;39;20097;-61
2021/04/11 05:33:19;;;;;;;15.38;9.60;;;8.90;65.10;;;;;;1497187;39;20030;-58
2021/04/11 05:34:41;;;;;;;15.60;10.57;;;8.90;65.20;;;;;;1496540;39;20058;-61
2021/04/11 05:36:11;;;;;;;16.83;10.80;;;8.90;65.20;;;;;;1496321;39;20039;-61
2021/04/11 05:37:41;;;;;;;16.27;11.55;;;8.90;65.30;;;;;;1496534;39;20383;-60
2021/04/11 05:39:13;;;;;;;18.52;12.02;;;8.90;65.20;;;;;;1494671;39;20438;-61
2021/04/11 05:40:41;;;;;;;20.58;13.18;;;8.90;65.20;;;;;;1498620;39;20095;-61
2021/04/11 05:42:08;;;;;;;22.55;13.75;;;8.90;65.20;;;;;;1497008;39;20368;-60
2021/04/11 05:43:43;;;;;;;21.48;14.60;;;8.90;65.40;;;;;;1494999;39;20084;-60
2021/04/11 05:45:15;;;;;;;21.73;14.60;;;8.90;65.30;;;;;;1497388;39;20043;-58
2021/04/11 05:46:50;;;;;;;24.27;16.65;;;8.90;65.30;;;;;;1496891;39;20082;-59
2021/04/11 05:48:30;;;;;;;23.23;15.95;;;8.90;65.30;;;;;;1497400;39;20042;-61
2021/04/11 05:50:16;;;;;;;23.58;16.63;;;8.90;65.20;;;;;;1493461;39;20083;-62
2021/04/11 05:51:41;;;;;;;20.45;14.45;;;8.90;65.10;;;;;;1495543;39;20030;-61
2021/04/11 05:53:21;;;;;;;21.20;15.80;;;8.90;64.90;;;;;;1494902;39;20012;-58
2021/04/11 05:54:49;;;;;;;19.08;15.18;;;8.90;65.00;;;;;;1494643;39;20037;-60
2021/04/11 05:56:16;;;;;;;18.98;15.07;;;8.90;65.00;;;;;;1497189;39;20038;-60
2021/04/11 05:58:01;;;;;;;18.15;14.75;;;8.90;64.90;;;;;;1496516;39;20027;-61
2021/04/11 05:59:42;;;;;;;17.77;12.88;;;8.90;65.20;;;;;;1499229;39;20037;-61
2021/04/11 06:01:12;;;;;;;15.35;11.80;;;8.90;65.10;;;;;;1493231;39;20280;-59
2021/04/11 06:02:50;;;;;;;16.23;11.45;;;8.90;64.90;;;;;;1497426;39;20439;-60
2021/04/11 06:04:15;;;;;;;12.52;9.95;;;8.90;65.20;;;;;;1499234;39;20034;-60
2021/04/11 06:05:46;;;;;;;13.75;10.30;;;8.90;65.00;;;;;;1496063;39;20740;-58
2021/04/11 06:07:28;;;;;;;13.82;10.20;;;8.90;65.20;;;;;;1497781;39;20030;-59
2021/04/11 06:08:52;;;;;;;10.48;9.13;;;8.80;65.40;;;;;;1494845;39;20035;-60
2021/04/11 06:10:42;;;;;;;10.65;8.95;;;8.80;65.30;;;;;;1496380;39;20090;-60
2021/04/11 06:12:12;;;;;;;10.18;8.13;;;8.80;65.50;;;;;;1496616;39;20027;-59
2021/04/11 06:13:33;;;;;;;;;;;8.80;65.40;;;;;;1498482;39;20049;-59
2021/04/11 06:15:16;;;;;;;8.82;7.00;;;8.80;65.70;;;;;;1494604;39;19931;-59
2021/04/11 06:16:37;;;;;;;8.55;7.07;;;8.80;65.40;;;;;;1497426;39;20350;-59
2021/04/11 06:17:59;;;;;;;8.40;7.35;;;8.90;65.20;;;;;;1497925;39;20281;-59
2021/04/11 06:19:21;;;;;;;7.90;6.38;;;8.90;65.40;;;;;;1495004;39;20022;-58
2021/04/11 06:20:46;;;;;;;7.97;6.35;;;8.80;65.30;;;;;;1497175;39;20046;-59
2021/04/11 06:22:27;;;;;;;6.65;6.03;;;8.80;65.30;;;;;;1496558;39;20024;-58
2021/04/11 06:24:11;;;;;;;6.80;6.07;;;8.80;65.40;;;;;;1494913;39;20039;-60
2021/04/11 06:26:10;;;;;;;6.18;5.57;;;8.80;65.70;;;;;;1498242;39;20078;-60
2021/04/11 06:27:56;;;;;;;6.43;5.75;;;8.80;65.70;;;;;;1496292;39;20035;-60
2021/04/11 06:29:28;;;;;;;7.05;5.45;;;8.80;65.40;;;;;;1498104;39;20023;-61
2021/04/11 06:31:13;;;;;;;5.90;5.30;;;8.90;65.40;;;;;;1494166;39;20043;-61
2021/04/11 06:32:42;;;;;;;5.93;5.20;;;8.90;65.30;;;;;;1496347;39;20035;-61
2021/04/11 06:34:10;;;;;;;5.55;4.97;;;8.90;65.90;;;;;;1496107;39;20040;-60
2021/04/11 06:35:44;;;;;;;5.43;4.70;;;8.90;65.20;;;;;;1496124;39;20394;-60
2021/04/11 06:37:10;;;;;;;5.60;5.00;;;8.90;65.30;;;;;;1495653;39;20115;-61
2021/04/11 06:38:45;;;;;;;5.28;4.78;;;8.90;65.30;;;;;;1498054;39;20047;-60
2021/04/11 06:40:39;;;;;;;5.68;4.85;;;8.90;65.40;;;;;;1497474;39;20363;-61
2021/04/11 06:42:03;;;;;;;5.07;4.45;;;8.90;65.70;;;;;;1496947;39;20027;-60
2021/04/11 06:43:53;;;;;;;5.00;4.60;;;8.90;65.40;;;;;;1499483;39;20159;-60
2021/04/11 06:45:28;;;;;;;4.40;4.00;;;8.80;65.40;;;;;;1497712;39;20039;-60
2021/04/11 06:46:58;;;;;;;4.72;4.30;;;8.90;65.50;;;;;;1496133;39;20068;-61
2021/04/11 06:48:38;;;;;;;4.90;4.50;;;8.90;65.40;;;;;;1495356;39;20023;-60
2021/04/11 06:50:43;;;;;;;5.15;4.68;;;8.90;65.50;;;;;;1497244;39;20070;-60
2021/04/11 06:52:41;;;;;;;4.35;4.00;;;8.90;65.40;;;;;;1478115;40;20389;-60
2021/04/11 06:54:26;;;;;;;4.75;4.30;;;8.90;65.40;;;;;;1483207;39;20062;-61
2021/04/11 06:55:59;;;;;;;5.00;4.57;;;8.90;65.50;;;;;;1496319;39;20084;-60
2021/04/11 06:57:38;;;;;;;4.43;4.13;;;8.90;65.40;;;;;;1498911;39;20038;-60
2021/04/11 06:59:40;;;;;;;4.85;4.43;;;8.90;65.30;;;;;;1495331;39;20031;-58
2021/04/11 07:01:33;;;;;;;4.22;3.83;;;8.90;65.30;;;;;;1496879;39;20054;-60
2021/04/11 07:03:28;;;;;;;4.35;4.00;;;8.90;65.20;;;;;;1495743;39;20103;-61
2021/04/11 07:05:11;;;;;;;4.65;4.10;;;8.90;65.10;;;;;;1498500;39;20026;-59
2021/04/11 07:07:00;;;;;;;4.50;4.15;;;8.90;65.10;;;;;;1496766;39;20033;-60
2021/04/11 07:08:30;;;;;;;3.65;3.35;;;8.90;65.00;;;;;;1488310;39;20058;-60
2021/04/11 07:10:20;;;;;;;4.13;3.75;;;8.90;64.90;;;;;;1496985;39;20198;-60
2021/04/11 07:11:50;;;;;;;3.47;3.17;;;8.90;64.90;;;;;;1496555;39;20039;-60
2021/04/11 07:13:17;;;;;;;3.80;3.50;;;8.90;64.90;;;;;;1498879;39;20255;-60
2021/04/11 07:14:59;;;;;;;3.53;3.30;;;8.90;64.90;;;;;;1498669;39;20131;-60
2021/04/11 07:17:02;;;;;;;3.65;3.35;;;8.80;65.10;;;;;;1497046;39;20248;-61
2021/04/11 07:18:44;;;;;;;3.58;3.38;;;8.80;65.30;;;;;;1499197;39;20031;-60
2021/04/11 07:20:42;;;;;;;4.43;3.58;;;8.80;65.40;;;;;;1496645;39;20369;-60
2021/04/11 07:22:31;;;;;;;3.17;2.97;;;8.80;65.60;;;;;;1496582;39;20421;-59
2021/04/11 07:24:29;;;;;;;3.08;2.88;;;8.80;65.40;;;;;;1496730;39;20054;-60
2021/04/11 07:25:59;;;;;;;3.60;3.13;;;8.80;65.60;;;;;;1496343;39;20026;-60
2021/04/11 07:27:43;;;;;;;3.25;3.05;;;8.80;65.50;;;;;;1497921;39;20057;-60
2021/04/11 07:29:14;;;;;;;3.08;2.88;;;8.80;65.50;;;;;;1482854;39;20114;-60
2021/04/11 07:30:54;;;;;;;3.05;2.85;;;8.80;65.50;;;;;;1497533;39;20034;-60
2021/04/11 07:32:18;;;;;;;2.88;2.67;;;8.80;65.80;;;;;;1498534;39;20035;-60
2021/04/11 07:33:57;;;;;;;2.95;2.75;;;8.80;65.50;;;;;;1496167;39;20045;-60
2021/04/11 07:35:35;;;;;;;2.83;2.63;;;8.80;65.60;;;;;;1497837;39;20102;-60
2021/04/11 07:37:21;;;;;;;2.67;2.47;;;8.80;65.50;;;;;;1495967;39;20039;-60
2021/04/11 07:39:13;;;;;;;2.88;2.67;;;8.90;65.70;;;;;;1495430;39;20246;-60
2021/04/11 07:40:44;;;;;;;2.63;2.42;;;8.90;65.70;;;;;;1495542;39;20275;-60
2021/04/11 07:42:11;;;;;;;2.67;2.58;;;8.90;65.50;;;;;;1497941;39;20019;-60
2021/04/11 07:44:10;;;;;;;2.42;2.22;;;8.90;65.50;;;;;;1495947;39;20086;-60
2021/04/11 07:46:02;;;;;;;2.53;2.33;;;8.90;65.70;;;;;;1498360;39;20034;-60
2021/04/11 07:47:45;;;;;;;2.42;2.30;;;8.90;65.70;;;;;;1497364;39;20042;-61
2021/04/11 07:49:38;;;;;;;2.83;2.63;;;8.90;65.80;;;;;;1496340;39;20490;-60
2021/04/11 07:51:24;;;;;;;2.40;2.30;;;8.90;65.90;;;;;;1494678;39;20036;-60